QFA618 RKSI-YSSY
Flight info
| Callsign | QFA618 |
|---|---|
| Flight time | N/A |
| Altitude | 33000 |
| Route | OSPOT Y782 TGU Y781 BESNA Y209 IKE A582 HKC Y14 TGE G339 LUKRA/N0492F350 G339 PAKDO DCT 14N140E 08N142E 04N143E/N0496F370 DCT FACED A216 CS Y177 AKROM/N0487F390 Y153 ROKUU H652 BOREE |
| Aircraft | A35K/H-SDE2E3GHIJ3J4J5LM1ORWXY/LB1D1 |
Departure
| Time | 2026-05-01 08:42 |
|---|---|
| Airport | Incheon International Airport (RKSI) |
Arrival
| Time | N/A |
|---|---|
| Airport | Sydney Kingsford Smith International Airport (YSSY) |
| Time | Latitude | Longitude | Altitude | Speed | Heading |
|---|---|---|---|---|---|
| 2026-05-01 07:58 | 37.44522 | 126.44882 | 38 ft | 0 kts | 347° |
| 2026-05-01 08:28 | 37.44513 | 126.44885 | 37 ft | 3 kts | 343° |
| 2026-05-01 08:29 | 37.44491 | 126.44890 | 37 ft | 3 kts | 2° |
| 2026-05-01 08:29 | 37.44468 | 126.44889 | 37 ft | 3 kts | 2° |
| 2026-05-01 08:29 | 37.44445 | 126.44887 | 38 ft | 3 kts | 10° |
| 2026-05-01 08:29 | 37.44423 | 126.44880 | 37 ft | 3 kts | 18° |
| 2026-05-01 08:30 | 37.44402 | 126.44872 | 37 ft | 3 kts | 359° |
| 2026-05-01 08:30 | 37.44379 | 126.44873 | 36 ft | 3 kts | 359° |
| 2026-05-01 08:30 | 37.44356 | 126.44873 | 37 ft | 3 kts | 3° |
| 2026-05-01 08:30 | 37.44334 | 126.44872 | 36 ft | 2 kts | 3° |
| 2026-05-01 08:31 | 37.44331 | 126.44871 | 36 ft | 0 kts | 3° |
| 2026-05-01 08:34 | 37.44333 | 126.44872 | 36 ft | 1 kts | 2° |
| 2026-05-01 08:34 | 37.44353 | 126.44871 | 37 ft | 7 kts | 355° |
| 2026-05-01 08:34 | 37.44401 | 126.44793 | 36 ft | 15 kts | 277° |
| 2026-05-01 08:35 | 37.44422 | 126.44691 | 38 ft | 6 kts | 294° |
| 2026-05-01 08:35 | 37.44422 | 126.44690 | 38 ft | 0 kts | 294° |
| 2026-05-01 08:35 | 37.44426 | 126.44683 | 38 ft | 3 kts | 296° |
| 2026-05-01 08:35 | 37.44443 | 126.44640 | 38 ft | 8 kts | 298° |
| 2026-05-01 08:36 | 37.44513 | 126.44586 | 38 ft | 21 kts | 337° |
| 2026-05-01 08:36 | 37.44678 | 126.44467 | 38 ft | 29 kts | 324° |
| 2026-05-01 08:36 | 37.44842 | 126.44318 | 38 ft | 28 kts | 324° |
| 2026-05-01 08:36 | 37.44991 | 126.44194 | 38 ft | 19 kts | 348° |
| 2026-05-01 08:37 | 37.45085 | 126.44295 | 38 ft | 20 kts | 54° |
| 2026-05-01 08:37 | 37.45179 | 126.44460 | 38 ft | 27 kts | 54° |
| 2026-05-01 08:37 | 37.45305 | 126.44680 | 38 ft | 34 kts | 54° |
| 2026-05-01 08:37 | 37.45444 | 126.44925 | 38 ft | 34 kts | 54° |
| 2026-05-01 08:38 | 37.45572 | 126.45150 | 38 ft | 32 kts | 54° |
| 2026-05-01 08:38 | 37.45686 | 126.45351 | 38 ft | 19 kts | 59° |
| 2026-05-01 08:38 | 37.45649 | 126.45464 | 38 ft | 15 kts | 144° |
| 2026-05-01 08:38 | 37.45546 | 126.45556 | 38 ft | 21 kts | 145° |
| 2026-05-01 08:39 | 37.45425 | 126.45663 | 38 ft | 22 kts | 145° |
| 2026-05-01 08:39 | 37.45307 | 126.45771 | 38 ft | 12 kts | 130° |
| 2026-05-01 08:39 | 37.45316 | 126.45874 | 38 ft | 14 kts | 55° |
| 2026-05-01 08:39 | 37.45377 | 126.45978 | 37 ft | 16 kts | 53° |
| 2026-05-01 08:40 | 37.45478 | 126.46037 | 36 ft | 0 kts | 325° |
| 2026-05-01 08:40 | 37.45480 | 126.46035 | 36 ft | 2 kts | 325° |
| 2026-05-01 08:41 | 37.45532 | 126.45990 | 35 ft | 24 kts | 325° |
| 2026-05-01 08:41 | 37.45863 | 126.45691 | 36 ft | 92 kts | 324° |
| 2026-05-01 08:41 | 37.46554 | 126.45081 | 37 ft | 149 kts | 324° |
| 2026-05-01 08:41 | 37.47514 | 126.44266 | 403 ft | 168 kts | 321° |
| 2026-05-01 08:42 | 37.48466 | 126.43506 | 1222 ft | 158 kts | 322° |
| 2026-05-01 08:42 | 37.49453 | 126.42771 | 1665 ft | 171 kts | 326° |
| 2026-05-01 08:42 | 37.50536 | 126.41984 | 1912 ft | 188 kts | 326° |
| 2026-05-01 08:42 | 37.51724 | 126.41093 | 2152 ft | 209 kts | 326° |
| 2026-05-01 08:43 | 37.52985 | 126.40133 | 2532 ft | 221 kts | 326° |
| 2026-05-01 08:43 | 37.53674 | 126.39596 | 2698 ft | 230 kts | 326° |
| 2026-05-01 08:43 | 37.53790 | 126.39506 | 2735 ft | 231 kts | 326° |